Time;durP1;ratioP1;P1;durP2;ratioP2;P2;SDS_P1;SDS_P2;PMS_P1;PMS_P2;Temp;Humidity;BMP_temperature;BMP_pressure;BME280_temperature;BME280_humidity;BME280_pressure;Samples;Min_cycle;Max_cycle;Signal;HPM_P1;HPM_P2
2022/11/25 00:06:20;;;;;;;35.90;23.60;;;;;;;3.91;70.75;98981.61;222609;1235;137778;-74
2022/11/25 00:11:49;;;;;;;39.30;24.70;;;;;;;3.87;71.31;98990.38;223196;1247;137152;-74
2022/11/25 00:18:08;;;;;;;43.80;25.20;;;;;;;3.82;71.34;98991.42;223331;1240;137605;-69
2022/11/25 00:25:23;;;;;;;;;;;;;;;;;;;;;
2022/11/25 01:09:54;;;;;;;77.40;39.20;;;;;;;3.95;71.71;99007.64;223068;1243;137349;-64
2022/11/25 01:15:28;;;;;;;77.50;38.90;;;;;;;3.91;71.71;99013.20;222827;1247;137028;-69
2022/11/25 01:20:51;;;;;;;73.90;38.10;;;;;;;3.92;72.05;99015.48;222276;1250;137996;-66
2022/11/25 01:27:32;;;;;;;80.80;40.10;;;;;;;4.02;72.19;99018.62;222545;1246;137885;-68
2022/11/25 01:33:43;;;;;;;;;;;;;;;;;;;;;
2022/11/25 01:39:26;;;;;;;72.50;37.40;;;;;;;4.10;71.95;99016.57;224863;1248;139559;-66
2022/11/25 01:45:26;;;;;;;79.10;36.60;;;;;;;4.06;71.71;99017.07;226962;1242;138039;-66
2022/11/25 01:58:15;;;;;;;72.90;36.40;;;;;;;4.02;71.81;99014.41;227238;1236;139554;-70
2022/11/25 02:03:28;;;;;;;68.00;36.10;;;;;;;4.02;71.79;99006.49;225818;1245;137935;-65
2022/11/25 02:09:07;;;;;;;72.80;36.80;;;;;;;4.04;71.73;99008.35;225724;1241;138288;-71
2022/11/25 02:23:20;;;;;;;70.10;36.40;;;;;;;4.23;71.48;99003.80;226289;1233;138365;-67
2022/11/25 02:28:57;;;;;;;71.80;37.90;;;;;;;4.27;71.30;99005.77;225701;1241;138267;-68
2022/11/25 02:34:06;;;;;;;68.20;36.00;;;;;;;4.28;71.13;99005.75;226292;1232;138123;-67
2022/11/25 02:39:18;;;;;;;63.80;36.70;;;;;;;4.26;71.32;99002.11;226169;1251;137657;-63
2022/11/25 02:44:33;;;;;;;73.20;37.70;;;;;;;4.24;71.78;98999.90;226280;1235;137887;-67
2022/11/25 02:49:54;;;;;;;74.10;37.70;;;;;;;4.22;71.22;98992.77;226316;1253;138603;-69
2022/11/25 02:55:22;;;;;;;73.40;38.20;;;;;;;4.20;71.53;98987.74;226347;1244;138755;-66
2022/11/25 03:00:41;;;;;;;79.80;39.90;;;;;;;4.20;71.54;98990.90;226174;1241;137756;-66
2022/11/25 03:05:52;;;;;;;80.10;38.50;;;;;;;4.23;71.66;98995.36;226648;1238;138810;-66
2022/11/25 03:11:07;;;;;;;81.40;40.00;;;;;;;4.32;71.69;99003.14;226383;1243;138410;-66
2022/11/25 03:16:28;;;;;;;79.60;39.90;;;;;;;4.38;71.33;99004.31;226454;1240;137667;-65
2022/11/25 03:27:51;;;;;;;65.40;35.10;;;;;;;4.44;71.58;99002.66;226333;1233;138272;-66
2022/11/25 03:33:13;;;;;;;70.30;37.30;;;;;;;4.44;71.50;99008.81;226209;1240;137880;-64
2022/11/25 03:38:26;;;;;;;77.40;37.80;;;;;;;4.47;71.30;99014.67;226131;1240;138019;-62
2022/11/25 03:43:54;;;;;;;72.00;37.80;;;;;;;4.49;71.43;99021.83;226413;1244;137911;-63
2022/11/25 03:49:02;;;;;;;77.60;39.70;;;;;;;4.45;71.52;99023.00;226144;1239;137852;-62
2022/11/25 03:54:28;;;;;;;78.30;40.30;;;;;;;4.46;71.53;99024.02;226417;1235;138270;-64
2022/11/25 04:00:08;;;;;;;84.20;40.80;;;;;;;4.54;71.65;99020.91;227668;1230;138719;-67
2022/11/25 04:05:26;;;;;;;82.70;43.00;;;;;;;4.62;71.62;99023.96;226254;1241;138277;-65
2022/11/25 04:11:08;;;;;;;90.40;43.20;;;;;;;4.79;71.50;99022.95;226361;1242;138600;-66
2022/11/25 04:16:25;;;;;;;91.20;43.90;;;;;;;4.95;70.89;99020.73;226665;1243;139318;-63
2022/11/25 04:22:00;;;;;;;92.60;45.10;;;;;;;4.90;70.84;99025.88;227345;1237;138703;-64
2022/11/25 04:27:11;;;;;;;220.10;124.20;;;;;;;5.21;72.44;99031.67;227170;1231;138136;-65
2022/11/25 04:32:33;;;;;;;;;;;;;;;;;;;;;
2022/11/25 04:38:11;;;;;;;92.50;44.00;;;;;;;5.30;70.19;99038.86;226267;1240;138192;-66
2022/11/25 04:43:29;;;;;;;86.40;43.70;;;;;;;5.20;70.26;99042.45;226319;1237;138686;-66
2022/11/25 04:48:55;;;;;;;109.20;54.10;;;;;;;5.05;70.72;99048.30;226218;1244;138562;-67
2022/11/25 04:54:39;;;;;;;90.90;43.60;;;;;;;5.13;71.23;99047.25;225951;1241;139223;-67
2022/11/25 05:00:46;;;;;;;91.40;45.20;;;;;;;5.08;70.74;99054.50;227118;1233;138625;-69
2022/11/25 05:06:07;;;;;;;85.50;42.20;;;;;;;5.06;70.77;99059.33;226231;1252;138655;-68
2022/11/25 05:11:13;;;;;;;94.80;45.70;;;;;;;5.12;71.43;99065.96;226337;1243;140527;-67
2022/11/25 05:16:20;;;;;;;81.50;42.10;;;;;;;5.17;70.84;99069.99;226320;1252;138663;-65
2022/11/25 05:21:58;;;;;;;86.80;43.30;;;;;;;5.05;70.96;99078.02;227271;1237;137612;-66
2022/11/25 05:27:09;;;;;;;156.70;85.80;;;;;;;5.05;71.33;99084.02;226143;1234;139294;-66
2022/11/25 05:32:27;;;;;;;85.50;43.80;;;;;;;5.09;71.58;99088.94;226225;1243;138138;-63
2022/11/25 05:37:43;;;;;;;78.30;41.60;;;;;;;5.04;71.13;99087.91;226260;1241;138787;-65
2022/11/25 05:42:49;;;;;;;81.30;41.70;;;;;;;4.95;70.97;99088.06;226339;1233;138227;-63
2022/11/25 05:48:03;;;;;;;84.60;43.60;;;;;;;4.94;71.54;99097.24;226460;1234;138826;-65
2022/11/25 05:53:10;;;;;;;81.20;42.80;;;;;;;5.00;71.58;99098.96;226674;1240;139221;-63
2022/11/25 05:58:14;;;;;;;74.40;39.80;;;;;;;5.05;71.41;99107.56;226136;1238;138791;-65
2022/11/25 06:03:22;;;;;;;;;;;;;;;5.19;72.27;99112.46;226265;1244;138175;-64
2022/11/25 06:08:27;;;;;;;82.30;41.70;;;;;;;5.23;71.31;99116.34;226428;1240;124607;-66
2022/11/25 06:13:33;;;;;;;80.00;42.90;;;;;;;5.20;71.19;99124.02;227501;1230;138690;-66
2022/11/25 06:18:38;;;;;;;82.30;41.90;;;;;;;5.22;71.40;99126.59;226223;1241;138327;-63
2022/11/25 06:24:09;;;;;;;76.10;41.20;;;;;;;5.18;70.88;99130.43;226204;1244;138314;-67
2022/11/25 06:29:19;;;;;;;80.70;41.00;;;;;;;5.14;71.57;99135.86;226105;1244;138026;-64
2022/11/25 06:34:30;;;;;;;121.30;71.30;;;;;;;5.11;71.93;99134.94;226084;1251;138502;-65
2022/11/25 06:39:54;;;;;;;71.90;40.90;;;;;;;5.19;72.04;99137.26;226093;1243;139419;-65
2022/11/25 06:45:05;;;;;;;77.40;41.00;;;;;;;5.25;71.60;99142.30;227212;1241;139252;-63
2022/11/25 06:50:25;;;;;;;80.00;42.40;;;;;;;5.29;71.55;99146.53;226397;1238;138408;-66
2022/11/25 06:55:31;;;;;;;80.10;42.20;;;;;;;5.30;71.49;99146.87;226511;1243;139236;-64
2022/11/25 07:01:24;;;;;;;77.90;41.20;;;;;;;5.29;71.46;99147.63;226174;1242;138173;-63
2022/11/25 07:06:32;;;;;;;74.90;41.50;;;;;;;5.27;71.84;99150.70;226216;1244;139134;-66
2022/11/25 07:12:05;;;;;;;74.50;40.20;;;;;;;5.26;71.64;99149.98;227444;1229;137642;-66
2022/11/25 07:17:23;;;;;;;88.30;49.30;;;;;;;5.25;71.73;99150.25;226308;1251;138585;-63
2022/11/25 07:22:28;;;;;;;76.90;43.00;;;;;;;5.24;72.07;99153.42;227566;1243;137826;-63
2022/11/25 07:27:35;;;;;;;79.60;42.70;;;;;;;5.25;72.14;99153.73;226134;1241;137778;-64
2022/11/25 07:32:40;;;;;;;145.60;88.40;;;;;;;5.34;72.23;99159.55;226314;1238;139930;-64
2022/11/25 07:37:47;;;;;;;76.30;43.80;;;;;;;5.48;72.30;99162.17;226239;1248;139521;-63
2022/11/25 07:42:55;;;;;;;79.80;43.90;;;;;;;5.57;72.02;99164.30;226344;1251;139906;-63
2022/11/25 07:48:02;;;;;;;83.50;44.90;;;;;;;5.61;71.81;99176.27;226163;1236;138234;-67
2022/11/25 07:53:09;;;;;;;86.10;44.30;;;;;;;5.56;71.54;99178.90;226448;1235;138636;-64
2022/11/25 07:58:15;;;;;;;80.30;44.60;;;;;;;5.53;71.68;99184.31;226678;1240;138339;-67
2022/11/25 08:03:19;;;;;;;145.30;84.70;;;;;;;5.55;71.90;99186.34;227586;1233;138027;-65
2022/11/25 08:08:25;;;;;;;78.40;45.40;;;;;;;5.61;72.19;99194.18;226082;1251;138563;-66
2022/11/25 08:13:28;;;;;;;83.20;45.30;;;;;;;5.58;71.42;99201.02;226326;1248;138118;-66
2022/11/25 08:18:31;;;;;;;77.30;43.30;;;;;;;5.52;71.57;99204.61;226567;1249;138450;-69
2022/11/25 08:23:36;;;;;;;74.30;43.10;;;;;;;5.53;71.54;99203.69;227276;1231;138626;-66
2022/11/25 08:28:40;;;;;;;86.30;46.40;;;;;;;5.58;71.57;99204.55;226425;1237;138374;-66
2022/11/25 08:33:44;;;;;;;158.60;99.40;;;;;;;5.61;71.79;99209.89;226146;1251;138379;-68
2022/11/25 08:38:50;;;;;;;79.20;45.70;;;;;;;5.71;72.26;99214.76;227375;1230;138177;-68
2022/11/25 08:43:54;;;;;;;81.20;44.80;;;;;;;5.74;71.75;99220.98;227261;1231;138041;-67
2022/11/25 08:48:57;;;;;;;82.70;45.80;;;;;;;5.74;71.62;99220.29;226267;1241;138009;-66
2022/11/25 08:54:00;;;;;;;83.00;46.60;;;;;;;5.73;71.66;99222.98;227524;1235;138135;-68
2022/11/25 08:59:04;;;;;;;89.70;51.60;;;;;;;5.77;72.32;99222.64;226679;1237;138585;-65
2022/11/25 09:04:07;;;;;;;80.20;44.70;;;;;;;5.80;71.73;99227.08;226170;1243;139758;-65
2022/11/25 09:09:10;;;;;;;91.70;46.40;;;;;;;5.77;71.79;99226.48;226253;1236;138129;-64
2022/11/25 09:14:13;;;;;;;82.00;44.30;;;;;;;5.78;71.75;99229.08;227573;1225;138966;-65
2022/11/25 09:19:20;;;;;;;83.70;47.20;;;;;;;5.86;71.87;99232.27;226522;1238;138922;-67
2022/11/25 09:24:27;;;;;;;81.90;45.50;;;;;;;5.93;71.92;99229.56;227408;1230;138285;-65
2022/11/25 09:29:32;;;;;;;185.30;109.30;;;;;;;6.02;72.14;99232.75;227439;1236;138353;-65
2022/11/25 09:34:55;;;;;;;91.50;47.50;;;;;;;6.08;71.83;99227.94;226198;1235;139007;-65
2022/11/25 09:40:40;;;;;;;99.40;50.50;;;;;;;6.04;71.56;99238.85;226048;1238;138200;-66
2022/11/25 09:51:36;;;;;;;107.00;49.30;;;;;;;5.95;71.76;99233.91;226528;1234;138646;-65
2022/11/25 09:56:47;;;;;;;105.70;51.80;;;;;;;5.90;71.92;99231.61;226319;1241;139185;-64
2022/11/25 10:02:21;;;;;;;107.70;50.50;;;;;;;5.96;72.21;99228.58;226174;1243;139432;-65
2022/11/25 10:07:37;;;;;;;108.50;53.60;;;;;;;6.07;72.02;99230.25;226336;1237;138885;-65
2022/11/25 10:12:44;;;;;;;103.00;51.60;;;;;;;6.17;72.33;99229.48;226426;1234;139046;-65
2022/11/25 10:17:52;;;;;;;98.40;49.60;;;;;;;6.31;72.02;99232.79;226485;1237;140462;-65
2022/11/25 10:23:10;;;;;;;103.70;49.20;;;;;;;6.38;71.62;99231.45;226316;1237;138316;-65
2022/11/25 10:28:22;;;;;;;97.00;48.80;;;;;;;6.40;71.67;99234.17;226461;1242;138831;-64
2022/11/25 10:33:32;;;;;;;98.80;46.60;;;;;;;6.43;72.05;99235.48;226353;1236;138803;-66
2022/11/25 10:38:48;;;;;;;92.90;47.30;;;;;;;6.45;71.95;99238.54;227318;1231;139225;-65
2022/11/25 10:43:59;;;;;;;93.60;46.30;;;;;;;6.43;71.86;99236.88;226197;1238;138666;-65
2022/11/25 10:49:26;;;;;;;110.60;50.10;;;;;;;6.44;71.90;99238.62;227596;1231;138769;-65
2022/11/25 10:54:33;;;;;;;110.60;52.40;;;;;;;6.54;71.73;99242.05;226373;1235;139289;-68
2022/11/25 10:59:38;;;;;;;105.30;52.70;;;;;;;6.64;71.78;99242.69;227470;1242;139150;-67
2022/11/25 11:05:00;;;;;;;104.80;52.40;;;;;;;6.73;71.76;99236.84;226237;1242;139858;-68
2022/11/25 11:10:24;;;;;;;107.90;53.10;;;;;;;6.81;71.76;99239.31;226348;1241;138829;-68
2022/11/25 11:15:30;;;;;;;97.90;51.20;;;;;;;6.86;71.77;99239.95;226265;1241;138074;-67
2022/11/25 11:20:33;;;;;;;100.60;51.70;;;;;;;6.91;71.61;99236.60;225914;1243;138814;-68
2022/11/25 11:25:45;;;;;;;95.00;49.60;;;;;;;6.90;71.82;99239.11;226144;1235;138583;-65
2022/11/25 11:31:40;;;;;;;99.90;51.40;;;;;;;6.89;71.83;99236.31;226432;1234;138463;-65
2022/11/25 11:37:07;;;;;;;98.10;50.80;;;;;;;6.91;71.97;99239.77;226236;1242;138707;-65
2022/11/25 11:42:33;;;;;;;95.80;51.00;;;;;;;6.97;72.10;99236.31;226110;1241;139426;-65
2022/11/25 11:48:12;;;;;;;87.80;48.20;;;;;;;7.09;71.86;99236.48;226370;1229;138589;-65
2022/11/25 11:53:59;;;;;;;96.10;50.60;;;;;;;7.20;71.57;99241.64;226372;1243;138806;-64
2022/11/25 11:59:21;;;;;;;101.70;50.10;;;;;;;7.24;71.35;99240.59;226207;1235;139972;-65
2022/11/25 12:04:35;;;;;;;102.30;51.20;;;;;;;7.24;71.46;99244.64;226258;1238;138683;-65
2022/11/25 12:09:53;;;;;;;96.00;48.40;;;;;;;7.28;71.58;99242.34;227472;1219;139218;-65
2022/11/25 12:15:05;;;;;;;88.10;47.20;;;;;;;7.27;71.62;99240.64;226181;1234;138580;-65
2022/11/25 12:20:35;;;;;;;102.20;55.60;;;;;;;7.33;72.00;99239.29;227402;1243;140346;-64
2022/11/25 12:25:43;;;;;;;91.90;47.90;;;;;;;7.38;71.71;99249.67;226357;1235;140188;-65
2022/11/25 12:31:19;;;;;;;95.30;49.60;;;;;;;7.44;71.65;99251.86;226193;1241;138649;-64
2022/11/25 12:36:36;;;;;;;81.80;46.20;;;;;;;7.49;71.58;99257.61;227346;1226;139410;-65
2022/11/25 12:41:43;;;;;;;87.60;47.80;;;;;;;7.53;71.64;99257.43;226402;1249;139179;-64
2022/11/25 12:46:49;;;;;;;87.60;48.30;;;;;;;7.54;71.68;99259.14;226343;1240;138860;-64
2022/11/25 12:52:12;;;;;;;86.40;49.00;;;;;;;7.54;71.61;99258.78;226324;1241;138549;-63
2022/11/25 12:57:47;;;;;;;85.40;46.80;;;;;;;7.54;71.67;99257.72;226423;1243;139082;-64
2022/11/25 13:03:11;;;;;;;97.10;51.50;;;;;;;7.51;71.81;99258.40;226481;1246;138211;-63
2022/11/25 13:08:54;;;;;;;88.90;48.60;;;;;;;7.47;72.01;99260.35;227465;1227;138423;-65
2022/11/25 13:14:45;;;;;;;95.30;50.80;;;;;;;7.43;71.84;99262.46;226062;1251;139420;-64
2022/11/25 13:20:22;;;;;;;99.40;52.50;;;;;;;7.44;71.71;99260.50;226022;1235;139557;-64
2022/11/25 13:25:28;;;;;;;104.30;53.00;;;;;;;7.43;71.53;99260.88;226322;1241;138940;-65
2022/11/25 13:30:32;;;;;;;95.70;51.30;;;;;;;7.39;71.58;99269.56;227400;1229;139680;-64
2022/11/25 13:35:47;;;;;;;94.80;49.70;;;;;;;7.33;71.69;99269.62;226292;1241;138719;-64
2022/11/25 13:40:59;;;;;;;97.50;51.80;;;;;;;7.29;71.87;99267.51;227388;1232;138628;-64
2022/11/25 13:46:04;;;;;;;94.70;49.40;;;;;;;7.25;71.83;99268.21;227285;1236;138799;-64
2022/11/25 13:51:21;;;;;;;95.80;50.00;;;;;;;7.19;71.87;99274.86;227322;1235;138597;-64
2022/11/25 13:56:30;;;;;;;89.70;47.50;;;;;;;7.13;71.95;99279.20;227410;1233;138478;-64
2022/11/25 14:01:36;;;;;;;93.50;48.20;;;;;;;7.11;72.03;99279.61;226270;1248;139499;-64
2022/11/25 14:07:02;;;;;;;100.50;50.70;;;;;;;7.14;71.84;99284.80;225925;1238;138757;-65
2022/11/25 14:12:41;;;;;;;102.20;52.10;;;;;;;7.16;71.82;99285.73;227570;1233;139197;-65
2022/11/25 14:18:03;;;;;;;95.10;51.00;;;;;;;7.19;71.89;99283.52;226576;1234;139270;-65
2022/11/25 14:23:15;;;;;;;96.90;50.60;;;;;;;7.19;71.90;99288.46;227497;1232;138870;-64
2022/11/25 14:28:42;;;;;;;96.20;51.50;;;;;;;7.14;71.66;99290.60;226383;1248;138282;-64
2022/11/25 14:34:26;;;;;;;95.40;48.50;;;;;;;7.05;71.67;99294.50;227440;1243;137923;-64
2022/11/25 14:39:38;;;;;;;91.00;48.50;;;;;;;6.96;71.65;99298.11;226312;1241;139274;-64
2022/11/25 14:44:48;;;;;;;91.20;47.50;;;;;;;6.91;71.89;99301.69;225898;1241;138226;-64
2022/11/25 14:49:54;;;;;;;87.20;47.70;;;;;;;6.90;71.85;99305.07;226447;1242;139843;-65
2022/11/25 14:55:29;;;;;;;85.80;48.50;;;;;;;6.91;71.66;99305.37;226338;1237;141104;-64
2022/11/25 15:00:33;;;;;;;88.20;47.90;;;;;;;6.90;71.49;99311.73;226468;1235;138437;-64
2022/11/25 15:05:39;;;;;;;93.60;50.30;;;;;;;6.86;71.35;99312.63;226637;1243;137789;-64
2022/11/25 15:10:54;;;;;;;86.40;49.10;;;;;;;6.80;71.28;99320.45;227460;1237;138005;-65
2022/11/25 15:16:04;;;;;;;87.90;48.50;;;;;;;6.71;71.01;99322.61;226433;1241;139405;-64
2022/11/25 15:21:12;;;;;;;88.60;48.40;;;;;;;6.60;70.94;99325.70;226494;1239;138388;-64
2022/11/25 15:26:28;;;;;;;84.60;47.70;;;;;;;6.50;71.24;99333.01;227436;1233;138680;-64
2022/11/25 15:31:38;;;;;;;87.10;47.60;;;;;;;6.42;71.31;99334.18;227522;1234;138087;-65
2022/11/25 15:36:42;;;;;;;83.90;48.10;;;;;;;6.36;71.44;99335.98;227406;1244;138521;-65
2022/11/25 15:41:54;;;;;;;83.00;47.70;;;;;;;6.35;71.54;99338.87;227688;1234;139361;-65
2022/11/25 15:47:23;;;;;;;83.40;47.50;;;;;;;6.36;71.58;99335.67;226373;1243;138896;-64
2022/11/25 15:52:34;;;;;;;85.00;48.50;;;;;;;6.39;71.71;99335.53;227491;1227;139252;-65
2022/11/25 15:57:37;;;;;;;78.50;47.40;;;;;;;6.40;71.51;99330.72;226400;1251;138381;-64
2022/11/25 16:02:41;;;;;;;80.30;47.30;;;;;;;6.44;71.57;99332.34;226260;1241;138468;-65
2022/11/25 16:07:50;;;;;;;83.00;44.90;;;;;;;6.44;71.51;99334.82;226258;1243;137831;-65
2022/11/25 16:13:21;;;;;;;82.00;46.80;;;;;;;6.36;71.57;99331.59;226453;1241;138268;-64
2022/11/25 16:18:37;;;;;;;82.60;46.30;;;;;;;6.32;71.52;99336.73;226498;1241;138317;-64
2022/11/25 16:23:50;;;;;;;77.10;45.00;;;;;;;6.27;71.86;99332.33;227428;1236;137824;-64
2022/11/25 16:28:56;;;;;;;79.10;44.30;;;;;;;6.30;72.24;99342.79;226187;1234;139300;-64
2022/11/25 16:34:15;;;;;;;83.90;47.00;;;;;;;6.33;72.21;99342.51;226236;1250;139082;-64
2022/11/25 16:39:21;;;;;;;74.40;45.60;;;;;;;6.39;72.12;99347.90;226524;1251;139095;-65
2022/11/25 16:44:27;;;;;;;77.40;45.10;;;;;;;6.47;72.25;99348.25;226359;1243;139211;-64
2022/11/25 16:49:30;;;;;;;80.20;45.60;;;;;;;6.52;72.23;99355.48;227379;1229;138995;-64
2022/11/25 16:54:36;;;;;;;82.70;47.60;;;;;;;6.53;72.09;99352.07;227299;1225;138672;-64
2022/11/25 16:59:43;;;;;;;80.90;45.70;;;;;;;6.53;72.19;99350.68;227381;1236;138703;-64
2022/11/25 17:04:47;;;;;;;81.70;47.40;;;;;;;6.50;72.17;99345.83;226285;1241;138084;-64
2022/11/25 17:09:55;;;;;;;88.60;49.20;;;;;;;6.48;72.23;99349.98;226220;1251;138105;-64
2022/11/25 17:15:01;;;;;;;77.20;44.70;;;;;;;6.48;72.18;99351.76;226322;1235;138012;-65
2022/11/25 17:20:20;;;;;;;78.80;44.40;;;;;;;6.51;72.17;99359.58;226494;1251;138689;-65
2022/11/25 17:25:26;;;;;;;79.50;46.80;;;;;;;6.55;72.14;99358.18;227405;1241;139522;-64
2022/11/25 17:30:38;;;;;;;82.30;48.80;;;;;;;6.58;72.11;99362.96;226333;1236;139153;-64
2022/11/25 17:35:42;;;;;;;84.00;49.70;;;;;;;6.57;71.95;99367.60;226429;1243;138296;-64
2022/11/25 17:40:46;;;;;;;92.40;52.70;;;;;;;6.56;71.74;99376.29;227354;1236;138824;-63
2022/11/25 17:45:50;;;;;;;97.00;53.70;;;;;;;6.54;71.58;99378.84;226471;1233;138152;-64
2022/11/25 17:50:57;;;;;;;86.50;51.90;;;;;;;6.46;71.37;99380.95;226218;1243;139148;-65
2022/11/25 17:56:28;;;;;;;124.80;63.80;;;;;;;6.36;71.40;99384.64;226235;1238;138987;-66
2022/11/25 18:01:32;;;;;;;135.50;63.90;;;;;;;6.30;71.71;99387.70;227151;1241;138978;-62
2022/11/25 18:06:36;;;;;;;127.90;61.00;;;;;;;6.23;71.56;99390.64;227303;1234;139730;-64
2022/11/25 18:11:42;;;;;;;127.00;62.30;;;;;;;6.22;71.91;99388.21;227568;1237;139219;-64
2022/11/25 18:16:49;;;;;;;113.70;59.00;;;;;;;6.29;71.96;99390.02;227297;1230;139601;-64
2022/11/25 18:21:59;;;;;;;105.80;56.10;;;;;;;6.31;71.50;99394.70;227253;1233;138960;-65
2022/11/25 18:27:05;;;;;;;107.40;57.50;;;;;;;6.28;71.61;99394.64;227260;1221;139038;-65
2022/11/25 18:32:12;;;;;;;94.90;53.30;;;;;;;6.25;71.66;99398.15;226333;1238;139723;-65
2022/11/25 18:37:16;;;;;;;99.60;55.40;;;;;;;6.21;71.59;99406.75;226280;1237;139118;-65
2022/11/25 18:42:25;;;;;;;104.10;55.50;;;;;;;6.17;71.94;99412.35;226313;1244;138498;-65
2022/11/25 18:47:31;;;;;;;94.80;52.80;;;;;;;6.18;72.07;99418.14;226251;1237;138135;-64
2022/11/25 18:52:35;;;;;;;96.00;52.40;;;;;;;6.18;72.14;99420.61;226325;1241;138521;-64
2022/11/25 18:57:41;;;;;;;87.20;50.10;;;;;;;6.19;72.28;99419.15;226397;1241;140113;-64
2022/11/25 19:02:45;;;;;;;97.60;54.70;;;;;;;6.28;72.38;99417.75;226158;1238;139189;-65
2022/11/25 19:07:54;;;;;;;89.70;52.60;;;;;;;6.40;72.41;99418.70;226232;1243;138532;-65
2022/11/25 19:13:01;;;;;;;96.60;52.80;;;;;;;6.45;72.43;99412.67;226145;1245;138539;-65
2022/11/25 19:18:06;;;;;;;98.30;53.80;;;;;;;6.49;72.25;99415.33;227497;1243;139480;-67
2022/11/25 19:23:21;;;;;;;96.20;54.40;;;;;;;6.50;72.42;99424.98;226448;1252;138625;-66
2022/11/25 19:28:25;;;;;;;203.10;120.10;;;;;;;6.54;72.94;99434.19;226112;1243;138633;-65
2022/11/25 19:33:33;;;;;;;95.70;53.70;;;;;;;6.60;72.62;99432.87;226032;1241;139380;-66
2022/11/25 19:38:36;;;;;;;89.80;51.30;;;;;;;6.61;72.62;99439.34;226224;1237;139133;-66
2022/11/25 19:44:04;;;;;;;85.80;48.70;;;;;;;6.63;72.67;99448.98;226373;1255;139886;-63
2022/11/25 19:49:13;;;;;;;90.40;50.50;;;;;;;6.71;72.60;99453.61;226287;1245;139514;-63
2022/11/25 19:54:18;;;;;;;86.20;51.00;;;;;;;6.75;72.57;99455.71;227165;1236;138920;-63
2022/11/25 19:59:21;;;;;;;85.30;50.30;;;;;;;6.77;72.43;99455.67;226544;1252;138428;-65
2022/11/25 20:04:25;;;;;;;83.50;47.70;;;;;;;6.78;72.62;99459.13;226489;1243;138664;-64
2022/11/25 20:09:29;;;;;;;80.20;47.90;;;;;;;6.76;72.48;99466.30;226009;1237;138245;-64
2022/11/25 20:14:39;;;;;;;87.70;49.70;;;;;;;6.73;72.61;99469.23;226070;1251;139450;-65
2022/11/25 20:19:43;;;;;;;103.70;60.70;;;;;;;6.79;73.29;99474.08;226240;1240;139278;-64
2022/11/25 20:24:47;;;;;;;93.20;51.20;;;;;;;6.84;72.11;99473.17;226403;1244;139219;-65
2022/11/25 20:29:50;;;;;;;81.80;48.80;;;;;;;6.75;71.79;99473.90;226348;1242;138866;-65
2022/11/25 20:34:55;;;;;;;88.60;52.00;;;;;;;6.74;71.76;99474.27;226343;1240;138479;-64
2022/11/25 20:40:12;;;;;;;95.70;55.00;;;;;;;6.72;71.65;99481.25;227508;1247;138300;-64
2022/11/25 20:45:19;;;;;;;90.40;52.90;;;;;;;6.64;71.28;99487.04;226299;1255;138740;-64
2022/11/25 20:50:22;;;;;;;92.80;53.90;;;;;;;6.55;71.53;99490.02;226113;1234;138545;-67
2022/11/25 20:55:26;;;;;;;372.40;251.00;;;;;;;6.54;71.99;99488.98;227168;1234;137974;-67
2022/11/25 21:00:29;;;;;;;89.80;53.80;;;;;;;6.53;72.16;99488.86;226241;1237;138279;-66
2022/11/25 21:05:33;;;;;;;90.30;51.30;;;;;;;6.48;71.56;99493.84;226576;1235;138272;-64
2022/11/25 21:10:36;;;;;;;88.10;52.60;;;;;;;6.39;71.88;99498.40;226373;1238;138380;-66
2022/11/25 21:15:39;;;;;;;85.60;51.30;;;;;;;6.38;72.23;99502.11;226228;1242;139330;-65
2022/11/25 21:20:44;;;;;;;95.00;54.60;;;;;;;6.40;72.13;99506.96;226387;1238;138699;-65
2022/11/25 21:25:48;;;;;;;92.30;53.30;;;;;;;6.45;72.14;99514.73;226290;1240;138488;-65
2022/11/25 21:30:52;;;;;;;98.20;56.40;;;;;;;6.52;72.59;99511.80;227568;1230;138786;-63
2022/11/25 21:35:55;;;;;;;89.50;54.30;;;;;;;6.55;71.82;99509.77;226541;1229;138184;-63
2022/11/25 21:40:59;;;;;;;98.10;55.70;;;;;;;6.47;71.89;99517.46;226606;1243;137807;-64
2022/11/25 21:46:06;;;;;;;95.30;57.10;;;;;;;6.41;71.97;99517.35;226586;1255;138629;-63
2022/11/25 21:51:11;;;;;;;112.60;62.60;;;;;;;6.41;72.64;99519.81;226431;1253;139041;-62
2022/11/25 21:56:18;;;;;;;92.90;52.70;;;;;;;6.51;72.59;99521.74;226088;1244;139577;-64
2022/11/25 22:01:25;;;;;;;98.30;54.70;;;;;;;6.55;72.19;99526.70;226326;1254;138977;-62
2022/11/25 22:06:30;;;;;;;86.20;51.50;;;;;;;6.57;72.03;99525.91;226390;1233;138250;-62
2022/11/25 22:11:43;;;;;;;90.30;52.20;;;;;;;6.57;72.01;99527.48;226489;1241;138676;-63
2022/11/25 22:16:47;;;;;;;64.10;37.90;;;;;;;6.54;72.23;99533.44;226388;1240;138244;-62
2022/11/25 22:21:51;;;;;;;57.80;34.60;;;;;;;6.63;73.05;99540.48;227733;1231;138059;-63
2022/11/25 22:26:55;;;;;;;86.40;51.10;;;;;;;6.75;73.03;99541.10;226558;1239;138396;-62
2022/11/25 22:32:03;;;;;;;;;;;;;;;6.72;72.08;99540.33;227579;1242;138561;-64
2022/11/25 22:37:24;;;;;;;94.50;54.90;;;;;;;6.58;72.02;99545.60;226441;1239;124680;-62
2022/11/25 22:42:30;;;;;;;91.40;52.10;;;;;;;6.50;71.64;99548.57;226386;1247;139212;-62
2022/11/25 22:47:36;;;;;;;;;;;;;;;6.46;71.53;99552.23;226503;1253;139618;-62
2022/11/25 22:52:39;;;;;;;86.90;53.90;;;;;;;6.46;71.35;99549.41;226535;1240;125233;-62
2022/11/25 22:57:42;;;;;;;95.60;54.90;;;;;;;6.44;71.38;99547.91;226645;1235;138481;-62
2022/11/25 23:02:48;;;;;;;95.20;54.50;;;;;;;6.43;71.41;99554.48;227575;1229;138005;-62
2022/11/25 23:07:51;;;;;;;93.40;54.30;;;;;;;6.37;71.34;99559.94;226336;1238;140357;-62
2022/11/25 23:12:55;;;;;;;88.00;53.90;;;;;;;6.33;71.42;99560.10;226401;1240;138999;-63
2022/11/25 23:18:01;;;;;;;92.20;55.00;;;;;;;6.25;71.70;99564.80;226543;1244;138901;-64
2022/11/25 23:23:17;;;;;;;93.30;53.60;;;;;;;6.23;71.88;99566.84;226770;1238;138479;-64
2022/11/25 23:28:21;;;;;;;91.10;54.50;;;;;;;6.16;71.89;99567.23;227875;1236;138184;-64
2022/11/25 23:33:33;;;;;;;80.40;49.80;;;;;;;6.13;72.02;99570.35;227503;1233;138090;-63
2022/11/25 23:38:49;;;;;;;86.70;52.90;;;;;;;6.14;72.33;99570.30;227546;1242;139277;-64
2022/11/25 23:43:54;;;;;;;75.30;47.70;;;;;;;6.25;72.72;99568.32;226650;1238;138621;-63
2022/11/25 23:49:04;;;;;;;68.40;41.60;;;;;;;6.42;73.15;99566.45;226363;1242;138024;-64
2022/11/25 23:54:12;;;;;;;63.60;40.70;;;;;;;6.57;73.42;99564.69;226299;1241;138788;-63
2022/11/25 23:59:16;;;;;;;68.10;42.10;;;;;;;6.67;73.32;99569.96;226503;1234;138444;-63
